Ruston, LA

6:44 PM CST on December 05, 2019 (GMT -0600)
Ruston Regional

Weather History for KRSN - October, 2019

Change the Weather History Date:

Monday, October 21, 2019

  Actual Average Record
Temperature  
Mean Temperature 64 °F -  
Max Temperature 74 °F 74 °F 98 °F (2001)
Min Temperature 53 °F 49 °F 29 °F (1976)
Degree Days  
Heating Degree Days 2    
Growing Degree Days 14 (Base 50)    
Moisture  
Dew Point 61 °F    
Average Humidity 85    
Maximum Humidity 96    
Minimum Humidity 66    
Precipitation  
Precipitation 0.91 in - - ()
Sea Level Pressure  
Sea Level Pressure 29.87 in    
Wind  
Wind Speed 8 mph (SSW)    
Max Wind Speed 21 mph    
Max Gust Speed 33 mph    
Visibility 10 miles    
Events Rain , Thunderstorm    
Averages and records for this station are not official NWS values.
T = Trace of Precipitation, MM = Missing Value Source: NWS Daily Summary

Daily Weather History Graph

Daily Weather History Graph

Search for Another Location

Airport or City:

Astronomy

Oct. 21, 2019 Rise Set
Actual Time 7:18 AM CDT 6:30 PM CDT
Civil Twilight 6:53 AM CDT 6:55 PM CDT
Nautical Twilight 6:24 AM CDT 7:24 PM CDT
Astronomical Twilight 5:56 AM CDT 7:52 PM CDT
Moon No Moon Rise 2:25 PM CDT (10/21)
Length of Visible Light 12h 02m
Length of Day
11h 12m
Waning Gibbous, 48% of the Moon is Illuminated
Oct 21
Waning Gibbous
Oct 27
New
Nov 4
First Quarter
Nov 12
Full
Nov 19
Last Quarter

Hourly Weather History & Observations

Time (CDT) Temp. Dew Point Humidity Pressure Visibility Wind Dir Wind Speed Gust Speed Precip Events Conditions
12:15 AM 74.7 °F 71.8 °F 91% 29.79 in 10.0 mi SSW 13.8 mph - N/A   Overcast
12:35 AM 74.8 °F 72.0 °F 91% 29.78 in 10.0 mi South 10.4 mph - N/A   Overcast
12:55 AM 74.7 °F 71.8 °F 91% 29.78 in 10.0 mi South 9.2 mph - N/A   Overcast
1:15 AM 74.7 °F 71.6 °F 90% 29.76 in 10.0 mi South 10.4 mph - N/A   Overcast
1:35 AM 74.8 °F 70.9 °F 87% 29.76 in 10.0 mi South 16.1 mph 20.7 mph N/A   Overcast
1:55 AM 74.8 °F 70.7 °F 87% 29.76 in 10.0 mi South 18.4 mph 26.5 mph N/A   Overcast
2:35 AM 74.7 °F 70.3 °F 86% 29.76 in 10.0 mi SSW 10.4 mph 19.6 mph N/A   Overcast
2:55 AM 74.8 °F 70.3 °F 86% 29.76 in 10.0 mi South 12.7 mph 17.3 mph N/A   Mostly Cloudy
3:15 AM 74.8 °F 70.3 °F 86% 29.77 in 10.0 mi South 11.5 mph - N/A   Mostly Cloudy
3:35 AM 74.7 °F 70.2 °F 86% 29.78 in 10.0 mi South 12.7 mph 19.6 mph N/A   Mostly Cloudy
3:55 AM 74.7 °F 70.2 °F 86% 29.77 in 10.0 mi SSW 11.5 mph 17.3 mph N/A   Scattered Clouds
4:15 AM 74.8 °F 70.2 °F 85% 29.76 in 10.0 mi SSW 12.7 mph 16.1 mph N/A   Mostly Cloudy
4:35 AM 74.5 °F 70.0 °F 86% 29.76 in 10.0 mi South 11.5 mph - N/A   Scattered Clouds
4:55 AM 74.3 °F 69.8 °F 86% 29.76 in 10.0 mi South 13.8 mph - N/A   Scattered Clouds
5:15 AM 74.3 °F 69.8 °F 86% 29.75 in 10.0 mi South 13.8 mph - N/A   Clear
5:35 AM 74.3 °F 69.8 °F 86% 29.75 in 10.0 mi South 13.8 mph - N/A   Clear
5:55 AM 74.3 °F 70.0 °F 86% 29.74 in 10.0 mi South 16.1 mph 21.9 mph N/A   Scattered Clouds
6:15 AM 74.3 °F 70.0 °F 86% 29.76 in 10.0 mi SSW 11.5 mph - N/A   Scattered Clouds
6:35 AM 74.5 °F 70.0 °F 86% 29.82 in 10.0 mi NNW 20.7 mph 33.4 mph N/A   Mostly Cloudy
6:55 AM 64.8 °F 62.2 °F 92% 29.83 in 3.0 mi NNW 8.1 mph 16.1 mph 0.37 in Rain , Thunderstorm Heavy Thunderstorms and Rain
7:15 AM 63.7 °F 61.7 °F 93% 29.83 in 3.0 mi Calm Calm - 0.17 in Rain , Thunderstorm Heavy Thunderstorms and Rain
7:35 AM 63.9 °F 62.2 °F 94% 29.80 in 7.0 mi Calm Calm - 0.25 in Rain , Thunderstorm Light Thunderstorms and Rain
7:55 AM 63.7 °F 62.2 °F 95% 29.80 in 10.0 mi Calm Calm - 0.26 in Rain Rain
8:15 AM 63.9 °F 62.6 °F 96% 29.83 in 10.0 mi South 8.1 mph - 0.02 in Rain Light Rain
8:35 AM 63.7 °F 62.6 °F 96% 29.84 in 10.0 mi South 6.9 mph - 0.05 in Rain Rain
8:55 AM 63.5 °F 61.9 °F 94% 29.83 in 10.0 mi South 5.8 mph - 0.09 in Rain Light Rain
9:15 AM 63.1 °F 61.7 °F 95% 29.84 in 10.0 mi South 6.9 mph - N/A Rain Rain
9:35 AM 63.3 °F 61.7 °F 94% 29.85 in 10.0 mi South 5.8 mph - 0.01 in Rain Light Rain
9:55 AM 63.1 °F 61.7 °F 95% 29.88 in 10.0 mi SSW 5.8 mph - 0.03 in Rain Rain
10:15 AM 63.3 °F 61.7 °F 94% 29.88 in 5.0 mi South 5.8 mph - 0.04 in Rain Rain
10:35 AM 63.1 °F 61.7 °F 95% 29.89 in 10.0 mi South 8.1 mph - 0.08 in Rain Light Rain
10:55 AM 63.1 °F 61.7 °F 95% 29.89 in 10.0 mi SSE 8.1 mph - 0.11 in Rain Rain
11:15 AM 62.8 °F 61.2 °F 94% 29.89 in 10.0 mi South 8.1 mph - 0.03 in Rain Rain
11:35 AM 62.8 °F 61.2 °F 94% 29.88 in 10.0 mi South 4.6 mph - 0.04 in Rain Light Rain
11:55 AM 62.8 °F 61.0 °F 94% 29.90 in 10.0 mi Calm Calm - 0.04 in   Overcast
12:15 PM 62.6 °F 60.6 °F 93% 29.90 in 10.0 mi SSW 5.8 mph - N/A   Mostly Cloudy
12:35 PM 63.0 °F 60.8 °F 93% 29.89 in 10.0 mi SSW 3.5 mph - N/A   Clear
12:55 PM 63.5 °F 61.0 °F 91% 29.88 in 10.0 mi SSW 4.6 mph - N/A   Mostly Cloudy
1:15 PM 65.1 °F 61.0 °F 86% 29.88 in 10.0 mi SSW 4.6 mph - N/A   Overcast
1:35 PM 65.3 °F 59.7 °F 82% 29.88 in 10.0 mi SSW 3.5 mph - N/A   Overcast
1:55 PM 65.8 °F 60.4 °F 83% 29.88 in 10.0 mi WSW 3.5 mph - N/A   Overcast
2:15 PM 65.5 °F 60.1 °F 83% 29.88 in 10.0 mi Calm Calm - N/A   Overcast
2:35 PM 66.0 °F 60.6 °F 83% 29.86 in 10.0 mi Calm Calm - N/A   Overcast
2:55 PM 68.0 °F 61.0 °F 78% 29.86 in 10.0 mi Calm Calm - N/A   Mostly Cloudy
3:15 PM 68.0 °F 60.8 °F 78% 29.86 in 10.0 mi Calm Calm - N/A   Mostly Cloudy
3:35 PM 68.7 °F 60.8 °F 76% 29.86 in 10.0 mi Calm Calm - N/A   Overcast
3:55 PM 70.2 °F 61.2 °F 73% 29.86 in 10.0 mi Calm Calm - N/A   Overcast
4:15 PM 71.1 °F 61.2 °F 71% 29.86 in 10.0 mi Calm Calm - N/A   Mostly Cloudy
4:35 PM 71.4 °F 61.3 °F 70% 29.86 in 10.0 mi South 3.5 mph - 0.01 in   Scattered Clouds
4:55 PM 71.8 °F 61.0 °F 69% 29.86 in 10.0 mi Calm Calm - 0.01 in   Clear
5:15 PM 71.6 °F 61.0 °F 69% 29.86 in 10.0 mi Calm Calm - N/A   Clear
5:35 PM 72.0 °F 61.7 °F 70% 29.86 in 10.0 mi Calm Calm - N/A   Clear
5:55 PM 70.0 °F 63.9 °F 81% 29.87 in 10.0 mi Calm Calm - N/A   Clear
6:15 PM 69.4 °F 58.6 °F 68% 29.89 in 10.0 mi Calm Calm - N/A   Clear
6:35 PM 66.7 °F 55.8 °F 68% 29.90 in 10.0 mi NW 4.6 mph - N/A   Clear
6:55 PM 65.1 °F 53.6 °F 66% 29.91 in 10.0 mi NW 3.5 mph - N/A   Clear
7:15 PM 63.1 °F 53.6 °F 71% 29.92 in 10.0 mi Calm Calm - N/A   Clear
7:35 PM 60.8 °F 53.8 °F 78% 29.94 in 10.0 mi Calm Calm - N/A   Clear
7:55 PM 57.6 °F 55.0 °F 91% 29.95 in 10.0 mi Calm Calm - N/A   Clear
8:15 PM 56.5 °F 54.7 °F 94% 29.96 in 10.0 mi Calm Calm - N/A   Clear
8:35 PM 55.6 °F 54.0 °F 94% 29.97 in 10.0 mi Calm Calm - N/A   Clear
8:55 PM 55.0 °F 53.4 °F 94% 29.98 in 10.0 mi Calm Calm - N/A   Clear
9:15 PM 54.7 °F 52.5 °F 92% 29.98 in 10.0 mi Calm Calm - N/A   Clear
9:35 PM 53.8 °F 52.2 °F 94% 29.99 in 10.0 mi NW 3.5 mph - N/A   Clear
9:55 PM 56.5 °F 50.2 °F 79% 30.01 in 10.0 mi NW 4.6 mph - N/A   Clear
10:20 PM 57.7 °F 48.6 °F 71% 30.02 in 10.0 mi NNW 3.5 mph - N/A   Clear
10:35 PM 57.7 °F 48.2 °F 70% 30.03 in 10.0 mi NW 3.5 mph - N/A   Clear
10:55 PM 56.7 °F 48.4 °F 74% 30.04 in 10.0 mi NW 4.6 mph - N/A   Clear
11:15 PM 56.7 °F 47.5 °F 71% 30.05 in 10.0 mi NW 4.6 mph - N/A   Clear
11:35 PM 57.2 °F 46.4 °F 67% 30.05 in 10.0 mi NW 3.5 mph - N/A   Clear
11:55 PM 56.8 °F 46.0 °F 67% 30.05 in 10.0 mi NW 3.5 mph - N/A   Clear